sensor_id;sensor_type;location;lat;lon;timestamp;pressure;altitude;pressure_sealevel;temperature
64488;BMP280;50864;45.050;39.014;2022-12-11T00:01:12;101194.44;;;9.42
64488;BMP280;50864;45.050;39.014;2022-12-11T00:03:39;101201.94;;;9.45
64488;BMP280;50864;45.050;39.014;2022-12-11T00:06:10;101193.37;;;9.43
64488;BMP280;50864;45.050;39.014;2022-12-11T00:08:37;101195.22;;;9.42
64488;BMP280;50864;45.050;39.014;2022-12-11T00:11:04;101188.28;;;9.41
64488;BMP280;50864;45.050;39.014;2022-12-11T00:13:30;101193.63;;;9.41
64488;BMP280;50864;45.050;39.014;2022-12-11T00:15:58;101193.63;;;9.41
64488;BMP280;50864;45.050;39.014;2022-12-11T00:18:25;101186.91;;;9.39
64488;BMP280;50864;45.050;39.014;2022-12-11T00:20:51;101190.66;;;9.38
64488;BMP280;50864;45.050;39.014;2022-12-11T00:23:17;101180.78;;;9.38
64488;BMP280;50864;45.050;39.014;2022-12-11T00:25:45;101188.78;;;9.38
64488;BMP280;50864;45.050;39.014;2022-12-11T00:28:14;101188.78;;;9.38
64488;BMP280;50864;45.050;39.014;2022-12-11T00:30:41;101185.87;;;9.40
64488;BMP280;50864;45.050;39.014;2022-12-11T00:33:10;101179.72;;;9.39
64488;BMP280;50864;45.050;39.014;2022-12-11T00:35:41;101179.19;;;9.37
64488;BMP280;50864;45.050;39.014;2022-12-11T00:38:07;101173.84;;;9.37
64488;BMP280;50864;45.050;39.014;2022-12-11T00:40:35;101180.25;;;9.36
64488;BMP280;50864;45.050;39.014;2022-12-11T00:43:01;101174.12;;;9.41
64488;BMP280;50864;45.050;39.014;2022-12-11T00:45:27;101163.69;;;9.39
64488;BMP280;50864;45.050;39.014;2022-12-11T00:47:54;101167.97;;;9.40
64488;BMP280;50864;45.050;39.014;2022-12-11T00:50:20;101168.78;;;9.41
64488;BMP280;50864;45.050;39.014;2022-12-11T00:52:46;101169.59;;;9.41
64488;BMP280;50864;45.050;39.014;2022-12-11T00:55:12;101167.47;;;9.43
64488;BMP280;50864;45.050;39.014;2022-12-11T00:57:38;101170.69;;;9.45
64488;BMP280;50864;45.050;39.014;2022-12-11T01:00:05;101169.06;;;9.44
64488;BMP280;50864;45.050;39.014;2022-12-11T01:02:34;101165.03;;;9.47
64488;BMP280;50864;45.050;39.014;2022-12-11T01:05:00;101161.06;;;9.44
64488;BMP280;50864;45.050;39.014;2022-12-11T01:07:26;101159.44;;;9.43
64488;BMP280;50864;45.050;39.014;2022-12-11T01:09:52;101157.03;;;9.42
64488;BMP280;50864;45.050;39.014;2022-12-11T01:12:36;101160.50;;;9.42
64488;BMP280;50864;45.050;39.014;2022-12-11T01:15:03;101155.41;;;9.41
64488;BMP280;50864;45.050;39.014;2022-12-11T01:17:30;101145.78;;;9.40
64488;BMP280;50864;45.050;39.014;2022-12-11T01:19:56;101146.06;;;9.38
64488;BMP280;50864;45.050;39.014;2022-12-11T01:22:22;101140.44;;;9.34
64488;BMP280;50864;45.050;39.014;2022-12-11T01:24:48;101146.31;;;9.31
64488;BMP280;50864;45.050;39.014;2022-12-11T01:27:14;101139.09;;;9.27
64488;BMP280;50864;45.050;39.014;2022-12-11T01:29:40;101144.69;;;9.25
64488;BMP280;50864;45.050;39.014;2022-12-11T01:32:06;101138.56;;;9.25
64488;BMP280;50864;45.050;39.014;2022-12-11T01:34:32;101132.91;;;9.21
64488;BMP280;50864;45.050;39.014;2022-12-11T01:36:58;101139.34;;;9.20
64488;BMP280;50864;45.050;39.014;2022-12-11T01:39:24;101141.19;;;9.15
64488;BMP280;50864;45.050;39.014;2022-12-11T01:41:56;101138.78;;;9.13
64488;BMP280;50864;45.050;39.014;2022-12-11T01:46:48;101143.88;;;9.15
64488;BMP280;50864;45.050;39.014;2022-12-11T01:49:16;101133.19;;;9.15
64488;BMP280;50864;45.050;39.014;2022-12-11T01:54:14;101130.00;;;9.18
64488;BMP280;50864;45.050;39.014;2022-12-11T01:56:42;101127.34;;;9.18
64488;BMP280;50864;45.050;39.014;2022-12-11T01:59:10;101129.19;;;9.17
64488;BMP280;50864;45.050;39.014;2022-12-11T02:01:38;101120.91;;;9.19
64488;BMP280;50864;45.050;39.014;2022-12-11T02:04:06;101124.91;;;9.21
64488;BMP280;50864;45.050;39.014;2022-12-11T02:06:40;101120.91;;;9.19
64488;BMP280;50864;45.050;39.014;2022-12-11T02:09:12;101123.56;;;9.19
64488;BMP280;50864;45.050;39.014;2022-12-11T02:11:56;101123.31;;;9.20
64488;BMP280;50864;45.050;39.014;2022-12-11T02:17:13;101115.28;;;9.15
64488;BMP280;50864;45.050;39.014;2022-12-11T02:19:44;101115.56;;;9.14
64488;BMP280;50864;45.050;39.014;2022-12-11T02:22:29;101118.50;;;9.07
64488;BMP280;50864;45.050;39.014;2022-12-11T02:25:06;101120.06;;;9.08
64488;BMP280;50864;45.050;39.014;2022-12-11T02:27:42;101110.19;;;9.09
64488;BMP280;50864;45.050;39.014;2022-12-11T02:30:12;101116.06;;;9.11
64488;BMP280;50864;45.050;39.014;2022-12-11T02:32:52;101110.19;;;9.09
64488;BMP280;50864;45.050;39.014;2022-12-11T02:35:33;101113.38;;;9.11
64488;BMP280;50864;45.050;39.014;2022-12-11T02:38:17;101116.06;;;9.11
64488;BMP280;50864;45.050;39.014;2022-12-11T02:40:46;101109.69;;;9.07
64488;BMP280;50864;45.050;39.014;2022-12-11T02:43:15;101114.44;;;9.10
64488;BMP280;50864;45.050;39.014;2022-12-11T02:45:43;101112.06;;;9.08
64488;BMP280;50864;45.050;39.014;2022-12-11T02:48:10;101111.00;;;9.09
64488;BMP280;50864;45.050;39.014;2022-12-11T02:50:44;101115.00;;;9.07
64488;BMP280;50864;45.050;39.014;2022-12-11T02:53:12;101111.53;;;9.06
64488;BMP280;50864;45.050;39.014;2022-12-11T02:55:41;101107.25;;;9.05
64488;BMP280;50864;45.050;39.014;2022-12-11T02:58:37;101111.53;;;9.06
64488;BMP280;50864;45.050;39.014;2022-12-11T03:01:03;101111.78;;;9.05
64488;BMP280;50864;45.050;39.014;2022-12-11T03:03:29;101105.09;;;9.02
64488;BMP280;50864;45.050;39.014;2022-12-11T03:05:55;101098.69;;;9.03
64488;BMP280;50864;45.050;39.014;2022-12-11T03:08:21;101094.97;;;9.04
64488;BMP280;50864;45.050;39.014;2022-12-11T03:10:47;101093.34;;;9.03
64488;BMP280;50864;45.050;39.014;2022-12-11T03:13:17;101096.03;;;9.03
64488;BMP280;50864;45.050;39.014;2022-12-11T03:23:50;101089.34;;;9.01
64488;BMP280;50864;45.050;39.014;2022-12-11T03:26:18;101087.75;;;9.00
64488;BMP280;50864;45.050;39.014;2022-12-11T03:31:41;101090.13;;;9.01
64488;BMP280;50864;45.050;39.014;2022-12-11T03:34:21;101086.66;;;9.01
64488;BMP280;50864;45.050;39.014;2022-12-11T03:36:50;101089.06;;;8.97
64488;BMP280;50864;45.050;39.014;2022-12-11T03:39:24;101086.12;;;8.94
64488;BMP280;50864;45.050;39.014;2022-12-11T03:41:52;101079.19;;;8.93
64488;BMP280;50864;45.050;39.014;2022-12-11T03:44:20;101089.03;;;8.92
64488;BMP280;50864;45.050;39.014;2022-12-11T03:46:48;101081.28;;;8.90
64488;BMP280;50864;45.050;39.014;2022-12-11T03:49:22;101082.91;;;8.91
64488;BMP280;50864;45.050;39.014;2022-12-11T03:51:50;101079.44;;;8.91
64488;BMP280;50864;45.050;39.014;2022-12-11T03:54:17;101079.16;;;8.87
64488;BMP280;50864;45.050;39.014;2022-12-11T03:56:44;101086.12;;;8.88
64488;BMP280;50864;45.050;39.014;2022-12-11T03:59:11;101096.25;;;8.91
64488;BMP280;50864;45.050;39.014;2022-12-11T04:01:37;101091.19;;;8.90
64488;BMP280;50864;45.050;39.014;2022-12-11T04:04:04;101080.22;;;8.86
64488;BMP280;50864;45.050;39.014;2022-12-11T04:06:30;101088.47;;;8.85
64488;BMP280;50864;45.050;39.014;2022-12-11T04:08:56;101087.66;;;8.84
64488;BMP280;50864;45.050;39.014;2022-12-11T04:11:22;101078.84;;;8.84
64488;BMP280;50864;45.050;39.014;2022-12-11T04:16:49;101087.66;;;8.84
64488;BMP280;50864;45.050;39.014;2022-12-11T04:19:16;101090.59;;;8.83
64488;BMP280;50864;45.050;39.014;2022-12-11T04:22:01;101093.53;;;8.81
64488;BMP280;50864;45.050;39.014;2022-12-11T04:24:49;101091.97;;;8.80
64488;BMP280;50864;45.050;39.014;2022-12-11T04:27:16;101093.28;;;8.78
64488;BMP280;50864;45.050;39.014;2022-12-11T04:30:03;101092.72;;;8.76
64488;BMP280;50864;45.050;39.014;2022-12-11T04:32:30;101091.34;;;8.73
64488;BMP280;50864;45.050;39.014;2022-12-11T04:34:56;101094.56;;;8.70
64488;BMP280;50864;45.050;39.014;2022-12-11T04:37:21;101099.88;;;8.65
64488;BMP280;50864;45.050;39.014;2022-12-11T04:39:48;101089.72;;;8.62
64488;BMP280;50864;45.050;39.014;2022-12-11T04:42:14;101100.66;;;8.61
64488;BMP280;50864;45.050;39.014;2022-12-11T04:44:39;101093.16;;;8.58
64488;BMP280;50864;45.050;39.014;2022-12-11T04:47:06;101092.91;;;8.59
64488;BMP280;50864;45.050;39.014;2022-12-11T04:49:31;101094.75;;;8.59
64488;BMP280;50864;45.050;39.014;2022-12-11T04:51:57;101093.44;;;8.61
64488;BMP280;50864;45.050;39.014;2022-12-11T04:54:23;101089.72;;;8.62
64488;BMP280;50864;45.050;39.014;2022-12-11T04:56:49;101102.00;;;8.63
64488;BMP280;50864;45.050;39.014;2022-12-11T04:59:15;101105.22;;;8.65
64488;BMP280;50864;45.050;39.014;2022-12-11T05:01:41;101100.69;;;8.66
64488;BMP280;50864;45.050;39.014;2022-12-11T05:04:07;101099.62;;;8.67
64488;BMP280;50864;45.050;39.014;2022-12-11T05:06:33;101095.91;;;8.68
64488;BMP280;50864;45.050;39.014;2022-12-11T05:08:59;101104.94;;;8.72
64488;BMP280;50864;45.050;39.014;2022-12-11T05:11:25;101102.03;;;8.73
64488;BMP280;50864;45.050;39.014;2022-12-11T05:13:51;101107.69;;;8.77
64488;BMP280;50864;45.050;39.014;2022-12-11T05:16:17;101107.66;;;8.82
64488;BMP280;50864;45.050;39.014;2022-12-11T05:18:43;101107.16;;;8.85
64488;BMP280;50864;45.050;39.014;2022-12-11T05:21:12;101114.91;;;8.86
64488;BMP280;50864;45.050;39.014;2022-12-11T05:23:39;101093.31;;;8.88
64488;BMP280;50864;45.050;39.014;2022-12-11T05:26:09;101107.47;;;8.88
64488;BMP280;50864;45.050;39.014;2022-12-11T05:28:37;101106.41;;;8.89
64488;BMP280;50864;45.050;39.014;2022-12-11T05:31:11;101106.41;;;8.89
64488;BMP280;50864;45.050;39.014;2022-12-11T05:33:38;101104.81;;;8.94
64488;BMP280;50864;45.050;39.014;2022-12-11T05:36:05;101098.13;;;8.96
64488;BMP280;50864;45.050;39.014;2022-12-11T05:38:31;101105.63;;;8.99
64488;BMP280;50864;45.050;39.014;2022-12-11T05:41:01;101116.59;;;9.03
64488;BMP280;50864;45.050;39.014;2022-12-11T05:43:31;101108.63;;;9.08
64488;BMP280;50864;45.050;39.014;2022-12-11T05:46:18;101107.28;;;9.15
64488;BMP280;50864;45.050;39.014;2022-12-11T05:48:46;101111.03;;;9.19
64488;BMP280;50864;45.050;39.014;2022-12-11T05:51:13;101118.00;;;9.25
64488;BMP280;50864;45.050;39.014;2022-12-11T05:53:41;101110.78;;;9.31
64488;BMP280;50864;45.050;39.014;2022-12-11T05:56:31;101104.91;;;9.39
64488;BMP280;50864;45.050;39.014;2022-12-11T05:58:57;101104.97;;;9.44
64488;BMP280;50864;45.050;39.014;2022-12-11T06:01:29;101097.50;;;9.46
64488;BMP280;50864;45.050;39.014;2022-12-11T06:03:56;101110.28;;;9.49
64488;BMP280;50864;45.050;39.014;2022-12-11T06:06:23;101102.31;;;9.54
64488;BMP280;50864;45.050;39.014;2022-12-11T06:08:50;101110.31;;;9.59
64488;BMP280;50864;45.050;39.014;2022-12-11T06:11:17;101109.50;;;9.74
64488;BMP280;50864;45.050;39.014;2022-12-11T06:13:43;101106.81;;;10.09
64488;BMP280;50864;45.050;39.014;2022-12-11T06:16:09;101110.22;;;10.45
64488;BMP280;50864;45.050;39.014;2022-12-11T06:18:37;101101.81;;;10.77
64488;BMP280;50864;45.050;39.014;2022-12-11T06:21:30;101096.91;;;10.99
64488;BMP280;50864;45.050;39.014;2022-12-11T06:23:58;101103.75;;;11.21
64488;BMP280;50864;45.050;39.014;2022-12-11T06:26:25;101107.59;;;11.43
64488;BMP280;50864;45.050;39.014;2022-12-11T06:28:51;101104.97;;;11.72
64488;BMP280;50864;45.050;39.014;2022-12-11T06:31:18;101104.97;;;12.01
64488;BMP280;50864;45.050;39.014;2022-12-11T06:33:44;101102.53;;;12.28
64488;BMP280;50864;45.050;39.014;2022-12-11T06:36:13;101104.56;;;12.60
64488;BMP280;50864;45.050;39.014;2022-12-11T06:38:40;101103.88;;;12.92
64488;BMP280;50864;45.050;39.014;2022-12-11T06:41:06;101104.47;;;13.08
64488;BMP280;50864;45.050;39.014;2022-12-11T06:43:34;101106.31;;;13.26
64488;BMP280;50864;45.050;39.014;2022-12-11T06:46:12;101107.91;;;13.46
64488;BMP280;50864;45.050;39.014;2022-12-11T06:48:38;101104.81;;;13.71
64488;BMP280;50864;45.050;39.014;2022-12-11T06:51:09;101100.94;;;13.91
64488;BMP280;50864;45.050;39.014;2022-12-11T06:53:36;101091.47;;;14.07
64488;BMP280;50864;45.050;39.014;2022-12-11T06:56:07;101095.06;;;14.16
64488;BMP280;50864;45.050;39.014;2022-12-11T06:58:34;101089.47;;;14.26
64488;BMP280;50864;45.050;39.014;2022-12-11T07:01:01;101077.84;;;14.31
64488;BMP280;50864;45.050;39.014;2022-12-11T07:03:27;101083.81;;;14.41
64488;BMP280;50864;45.050;39.014;2022-12-11T07:05:53;101085.38;;;14.56
64488;BMP280;50864;45.050;39.014;2022-12-11T07:08:24;101081.19;;;14.63
64488;BMP280;50864;45.050;39.014;2022-12-11T07:10:49;101083.97;;;14.72
64488;BMP280;50864;45.050;39.014;2022-12-11T07:13:16;101078.81;;;14.84
64488;BMP280;50864;45.050;39.014;2022-12-11T07:15:41;101082.09;;;14.95
64488;BMP280;50864;45.050;39.014;2022-12-11T07:18:07;101079.38;;;15.17
64488;BMP280;50864;45.050;39.014;2022-12-11T07:20:35;101086.41;;;15.49
64488;BMP280;50864;45.050;39.014;2022-12-11T07:23:01;101083.16;;;15.69
64488;BMP280;50864;45.050;39.014;2022-12-11T07:25:27;101081.00;;;15.80
64488;BMP280;50864;45.050;39.014;2022-12-11T07:27:53;101089.44;;;15.95
64488;BMP280;50864;45.050;39.014;2022-12-11T07:30:19;101080.91;;;16.02
64488;BMP280;50864;45.050;39.014;2022-12-11T07:32:45;101080.00;;;16.06
64488;BMP280;50864;45.050;39.014;2022-12-11T07:35:11;101084.00;;;16.26
64488;BMP280;50864;45.050;39.014;2022-12-11T07:37:39;101075.91;;;16.26
64488;BMP280;50864;45.050;39.014;2022-12-11T07:40:06;101084.81;;;16.27
64488;BMP280;50864;45.050;39.014;2022-12-11T07:42:32;101078.16;;;16.41
64488;BMP280;50864;45.050;39.014;2022-12-11T07:44:58;101064.00;;;16.27
64488;BMP280;50864;45.050;39.014;2022-12-11T07:47:24;101062.72;;;16.16
64488;BMP280;50864;45.050;39.014;2022-12-11T07:49:50;101056.38;;;16.29
64488;BMP280;50864;45.050;39.014;2022-12-11T07:52:16;101070.84;;;16.42
64488;BMP280;50864;45.050;39.014;2022-12-11T07:54:42;101065.13;;;16.52
64488;BMP280;50864;45.050;39.014;2022-12-11T07:57:08;101064.66;;;16.58
64488;BMP280;50864;45.050;39.014;2022-12-11T07:59:34;101065.91;;;16.44
64488;BMP280;50864;45.050;39.014;2022-12-11T08:02:00;101059.69;;;16.18
64488;BMP280;50864;45.050;39.014;2022-12-11T08:04:26;101057.13;;;16.12
64488;BMP280;50864;45.050;39.014;2022-12-11T08:06:52;101060.63;;;16.13
64488;BMP280;50864;45.050;39.014;2022-12-11T08:09:18;101054.13;;;16.23
64488;BMP280;50864;45.050;39.014;2022-12-11T08:11:50;101056.69;;;16.28
64488;BMP280;50864;45.050;39.014;2022-12-11T08:14:17;101054.91;;;16.15
64488;BMP280;50864;45.050;39.014;2022-12-11T08:16:43;101064.63;;;16.16
64488;BMP280;50864;45.050;39.014;2022-12-11T08:19:13;101049.84;;;16.22
64488;BMP280;50864;45.050;39.014;2022-12-11T08:21:39;101044.75;;;16.20
64488;BMP280;50864;45.050;39.014;2022-12-11T08:24:05;101053.50;;;16.26
64488;BMP280;50864;45.050;39.014;2022-12-11T08:26:31;101052.41;;;16.27
64488;BMP280;50864;45.050;39.014;2022-12-11T08:28:57;101050.31;;;16.15
64488;BMP280;50864;45.050;39.014;2022-12-11T08:31:24;101037.28;;;16.17
64488;BMP280;50864;45.050;39.014;2022-12-11T08:33:51;101040.16;;;16.29
64488;BMP280;50864;45.050;39.014;2022-12-11T08:36:21;101037.00;;;16.36
64488;BMP280;50864;45.050;39.014;2022-12-11T08:38:48;101039.72;;;16.53
64488;BMP280;50864;45.050;39.014;2022-12-11T08:41:22;101037.00;;;16.79
64488;BMP280;50864;45.050;39.014;2022-12-11T08:43:49;101034.59;;;16.77
64488;BMP280;50864;45.050;39.014;2022-12-11T08:46:21;101028.25;;;16.82
64488;BMP280;50864;45.050;39.014;2022-12-11T08:48:48;101030.13;;;16.90
64488;BMP280;50864;45.050;39.014;2022-12-11T08:51:16;101030.63;;;16.92
64488;BMP280;50864;45.050;39.014;2022-12-11T08:53:43;101023.41;;;17.04
64488;BMP280;50864;45.050;39.014;2022-12-11T08:56:13;101020.22;;;17.20
64488;BMP280;50864;45.050;39.014;2022-12-11T08:58:40;101031.31;;;17.27
64488;BMP280;50864;45.050;39.014;2022-12-11T09:03:34;101013.69;;;17.50
64488;BMP280;50864;45.050;39.014;2022-12-11T09:06:03;101012.72;;;17.54
64488;BMP280;50864;45.050;39.014;2022-12-11T09:08:31;101017.31;;;17.62
64488;BMP280;50864;45.050;39.014;2022-12-11T09:11:05;101010.06;;;17.75
64488;BMP280;50864;45.050;39.014;2022-12-11T09:13:31;101003.50;;;17.85
64488;BMP280;50864;45.050;39.014;2022-12-11T09:15:57;100991.75;;;18.01
64488;BMP280;50864;45.050;39.014;2022-12-11T09:18:23;100998.25;;;18.09
64488;BMP280;50864;45.050;39.014;2022-12-11T09:20:58;100998.72;;;18.11
64488;BMP280;50864;45.050;39.014;2022-12-11T09:23:24;101000.69;;;18.02
64488;BMP280;50864;45.050;39.014;2022-12-11T09:25:50;100994.09;;;18.12
64488;BMP280;50864;45.050;39.014;2022-12-11T09:28:16;100988.44;;;18.17
64488;BMP280;50864;45.050;39.014;2022-12-11T09:30:42;100988.59;;;18.20
64488;BMP280;50864;45.050;39.014;2022-12-11T09:33:08;100985.41;;;18.18
64488;BMP280;50864;45.050;39.014;2022-12-11T09:35:34;100980.31;;;18.17
64488;BMP280;50864;45.050;39.014;2022-12-11T09:38:00;100975.50;;;18.22
64488;BMP280;50864;45.050;39.014;2022-12-11T09:40:26;100972.25;;;18.29
64488;BMP280;50864;45.050;39.014;2022-12-11T09:42:57;100971.41;;;18.16
64488;BMP280;50864;45.050;39.014;2022-12-11T09:45:25;100956.41;;;18.19
64488;BMP280;50864;45.050;39.014;2022-12-11T09:47:53;100958.63;;;18.17
64488;BMP280;50864;45.050;39.014;2022-12-11T09:50:26;100961.72;;;18.27
64488;BMP280;50864;45.050;39.014;2022-12-11T09:53:16;100955.31;;;18.32
64488;BMP280;50864;45.050;39.014;2022-12-11T09:56:08;100959.31;;;18.34
64488;BMP280;50864;45.050;39.014;2022-12-11T09:58:56;100951.69;;;18.28
64488;BMP280;50864;45.050;39.014;2022-12-11T10:01:50;100946.69;;;18.38
64488;BMP280;50864;45.050;39.014;2022-12-11T10:07:09;100945.44;;;18.93
64488;BMP280;50864;45.050;39.014;2022-12-11T10:09:50;100939.78;;;19.10
64488;BMP280;50864;45.050;39.014;2022-12-11T12:45:02;100940.16;;;19.08
64488;BMP280;50864;45.050;39.014;2022-12-11T12:47:33;100940.16;;;19.08
64488;BMP280;50864;45.050;39.014;2022-12-11T12:50:01;100898.16;;;14.67
64488;BMP280;50864;45.050;39.014;2022-12-11T12:52:33;100895.63;;;14.62
64488;BMP280;50864;45.050;39.014;2022-12-11T12:55:21;100890.06;;;14.58
64488;BMP280;50864;45.050;39.014;2022-12-11T13:00:37;100892.06;;;14.53
64488;BMP280;50864;45.050;39.014;2022-12-11T13:05:42;100886.62;;;14.44
64488;BMP280;50864;45.050;39.014;2022-12-11T13:08:10;100897.50;;;14.39
64488;BMP280;50864;45.050;39.014;2022-12-11T13:10:38;100894.94;;;14.34
64488;BMP280;50864;45.050;39.014;2022-12-11T13:13:28;100893.19;;;14.30
64488;BMP280;50864;45.050;39.014;2022-12-11T13:18:35;100885.53;;;14.23
64488;BMP280;50864;45.050;39.014;2022-12-11T13:21:23;100882.16;;;14.17
64488;BMP280;50864;45.050;39.014;2022-12-11T13:23:50;100878.44;;;14.13
64488;BMP280;50864;45.050;39.014;2022-12-11T13:26:30;100877.78;;;14.08
64488;BMP280;50864;45.050;39.014;2022-12-11T13:28:57;100879.50;;;14.04
64488;BMP280;50864;45.050;39.014;2022-12-11T13:31:33;100884.22;;;13.98
64488;BMP280;50864;45.050;39.014;2022-12-11T13:34:15;100875.16;;;13.94
64488;BMP280;50864;45.050;39.014;2022-12-11T13:36:49;100883.00;;;13.91
64488;BMP280;50864;45.050;39.014;2022-12-11T13:39:25;100882.06;;;13.87
64488;BMP280;50864;45.050;39.014;2022-12-11T13:42:04;100880.75;;;13.84
64488;BMP280;50864;45.050;39.014;2022-12-11T13:44:38;100878.97;;;13.80
64488;BMP280;50864;45.050;39.014;2022-12-11T13:47:09;100877.16;;;13.75
64488;BMP280;50864;45.050;39.014;2022-12-11T13:49:38;100879.38;;;13.73
64488;BMP280;50864;45.050;39.014;2022-12-11T13:52:06;100879.97;;;13.70
64488;BMP280;50864;45.050;39.014;2022-12-11T13:54:34;100873.59;;;13.66
64488;BMP280;50864;45.050;39.014;2022-12-11T13:59:40;100867.94;;;13.54
64488;BMP280;50864;45.050;39.014;2022-12-11T14:02:23;100869.03;;;13.53
64488;BMP280;50864;45.050;39.014;2022-12-11T14:04:56;100856.66;;;13.52
64488;BMP280;50864;45.050;39.014;2022-12-11T14:07:24;100864.34;;;13.45
64488;BMP280;50864;45.050;39.014;2022-12-11T14:09:55;100869.25;;;13.29
64488;BMP280;50864;45.050;39.014;2022-12-11T14:12:23;100861.25;;;13.24
64488;BMP280;50864;45.050;39.014;2022-12-11T14:14:52;100860.78;;;13.22
64488;BMP280;50864;45.050;39.014;2022-12-11T14:17:27;100858.66;;;13.19
64488;BMP280;50864;45.050;39.014;2022-12-11T14:19:56;100864.94;;;13.14
64488;BMP280;50864;45.050;39.014;2022-12-11T14:22:25;100870.13;;;13.11
64488;BMP280;50864;45.050;39.014;2022-12-11T14:24:59;100854.28;;;13.09
64488;BMP280;50864;45.050;39.014;2022-12-11T14:27:28;100865.34;;;13.08
64488;BMP280;50864;45.050;39.014;2022-12-11T14:29:54;100860.56;;;13.05
64488;BMP280;50864;45.050;39.014;2022-12-11T14:32:42;100861.38;;;13.05
64488;BMP280;50864;45.050;39.014;2022-12-11T14:37:48;100854.78;;;12.98
64488;BMP280;50864;45.050;39.014;2022-12-11T14:40:17;100844.13;;;12.93
64488;BMP280;50864;45.050;39.014;2022-12-11T14:42:51;100840.13;;;12.90
64488;BMP280;50864;45.050;39.014;2022-12-11T14:45:39;100847.69;;;12.88
64488;BMP280;50864;45.050;39.014;2022-12-11T14:48:12;100839.12;;;12.86
64488;BMP280;50864;45.050;39.014;2022-12-11T14:50:52;100847.69;;;12.88
64488;BMP280;50864;45.050;39.014;2022-12-11T14:53:25;100846.87;;;12.88
64488;BMP280;50864;45.050;39.014;2022-12-11T14:55:54;100844.72;;;12.90
64488;BMP280;50864;45.050;39.014;2022-12-11T14:58:23;100846.59;;;12.89
64488;BMP280;50864;45.050;39.014;2022-12-11T15:01:06;100843.19;;;12.83
64488;BMP280;50864;45.050;39.014;2022-12-11T15:03:40;100838.94;;;12.82
64488;BMP280;50864;45.050;39.014;2022-12-11T15:06:23;100842.50;;;12.78
64488;BMP280;50864;45.050;39.014;2022-12-11T15:08:50;100838.31;;;12.72
64488;BMP280;50864;45.050;39.014;2022-12-11T15:11:17;100844.28;;;12.69
64488;BMP280;50864;45.050;39.014;2022-12-11T15:13:53;100838.41;;;12.67
64488;BMP280;50864;45.050;39.014;2022-12-11T15:16:22;100834.72;;;12.63
64488;BMP280;50864;45.050;39.014;2022-12-11T15:18:50;100838.59;;;12.57
64488;BMP280;50864;45.050;39.014;2022-12-11T15:21:18;100843.44;;;12.55
64488;BMP280;50864;45.050;39.014;2022-12-11T15:23:59;100839.50;;;12.47
64488;BMP280;50864;45.050;39.014;2022-12-11T15:26:45;100838.19;;;12.45
64488;BMP280;50864;45.050;39.014;2022-12-11T15:29:35;100835.62;;;12.39
64488;BMP280;50864;45.050;39.014;2022-12-11T15:32:12;100839.97;;;12.35
64488;BMP280;50864;45.050;39.014;2022-12-11T15:34:55;100830.72;;;12.28
64488;BMP280;50864;45.050;39.014;2022-12-11T15:37:31;100841.53;;;12.23
64488;BMP280;50864;45.050;39.014;2022-12-11T15:39:59;100838.44;;;12.16
64488;BMP280;50864;45.050;39.014;2022-12-11T15:42:29;100836.31;;;12.13
64488;BMP280;50864;45.050;39.014;2022-12-11T15:44:55;100838.25;;;12.07
64488;BMP280;50864;45.050;39.014;2022-12-11T15:47:24;100839.94;;;12.03
64488;BMP280;50864;45.050;39.014;2022-12-11T15:50:06;100842.59;;;12.03
64488;BMP280;50864;45.050;39.014;2022-12-11T15:52:33;100843.47;;;11.99
64488;BMP280;50864;45.050;39.014;2022-12-11T15:54:59;100828.25;;;11.94
64488;BMP280;50864;45.050;39.014;2022-12-11T15:57:25;100825.62;;;11.89
64488;BMP280;50864;45.050;39.014;2022-12-11T15:59:52;100835.09;;;11.81
64488;BMP280;50864;45.050;39.014;2022-12-11T16:02:19;100830.63;;;11.77
64488;BMP280;50864;45.050;39.014;2022-12-11T16:04:45;100834.19;;;11.72
64488;BMP280;50864;45.050;39.014;2022-12-11T16:07:17;100831.88;;;11.66
64488;BMP280;50864;45.050;39.014;2022-12-11T16:09:44;100825.47;;;11.62
64488;BMP280;50864;45.050;39.014;2022-12-11T16:12:12;100826.31;;;11.57
64488;BMP280;50864;45.050;39.014;2022-12-11T16:14:43;100824.50;;;11.53
64488;BMP280;50864;45.050;39.014;2022-12-11T16:17:12;100820.81;;;11.48
64488;BMP280;50864;45.050;39.014;2022-12-11T16:19:39;100825.69;;;11.41
64488;BMP280;50864;45.050;39.014;2022-12-11T16:22:06;100815.34;;;11.35
64488;BMP280;50864;45.050;39.014;2022-12-11T16:24:35;100816.69;;;11.32
64488;BMP280;50864;45.050;39.014;2022-12-11T16:27:02;100815.69;;;11.28
64488;BMP280;50864;45.050;39.014;2022-12-11T16:29:33;100817.63;;;11.23
64488;BMP280;50864;45.050;39.014;2022-12-11T16:31:58;100821.16;;;11.18
64488;BMP280;50864;45.050;39.014;2022-12-11T16:34:25;100813.19;;;11.13
64488;BMP280;50864;45.050;39.014;2022-12-11T16:36:52;100817.75;;;11.13
64488;BMP280;50864;45.050;39.014;2022-12-11T16:39:19;100819.38;;;11.09
64488;BMP280;50864;45.050;39.014;2022-12-11T16:41:45;100815.12;;;11.02
64488;BMP280;50864;45.050;39.014;2022-12-11T16:44:11;100808.53;;;10.95
64488;BMP280;50864;45.050;39.014;2022-12-11T16:46:38;100811.22;;;10.95
64488;BMP280;50864;45.050;39.014;2022-12-11T16:49:04;100813.13;;;10.89
64488;BMP280;50864;45.050;39.014;2022-12-11T16:51:30;100810.00;;;10.82
64488;BMP280;50864;45.050;39.014;2022-12-11T16:53:56;100815.19;;;10.74
64488;BMP280;50864;45.050;39.014;2022-12-11T16:56:23;100812.28;;;10.65
64488;BMP280;50864;45.050;39.014;2022-12-11T16:58:49;100801.34;;;10.61
64488;BMP280;50864;45.050;39.014;2022-12-11T17:01:16;100806.75;;;10.56
64488;BMP280;50864;45.050;39.014;2022-12-11T17:03:43;100805.94;;;10.51
64488;BMP280;50864;45.050;39.014;2022-12-11T17:06:13;100808.97;;;10.44
64488;BMP280;50864;45.050;39.014;2022-12-11T17:08:40;100810.37;;;10.37
64488;BMP280;50864;45.050;39.014;2022-12-11T17:11:14;100816.03;;;10.25
64488;BMP280;50864;45.050;39.014;2022-12-11T17:13:41;100812.34;;;10.21
64488;BMP280;50864;45.050;39.014;2022-12-11T17:16:11;100815.59;;;10.13